Time;durP1;ratioP1;P1;durP2;ratioP2;P2;SDS_P1;SDS_P2;PMS_P1;PMS_P2;Temp;Humidity;BMP_temperature;BMP_pressure;BME280_temperature;BME280_humidity;BME280_pressure;Samples;Min_cycle;Max_cycle;Signal;HPM_P1;HPM_P2
2022/08/19 03:01:58;;;;;;;1.30;1.30;;;22.80;73.50;;;;;;5509441;22;20860;-78
2022/08/19 03:04:25;;;;;;;1.50;1.50;;;22.60;73.80;;;;;;5033592;28;20450;-77
2022/08/19 03:06:52;;;;;;;1.70;1.60;;;22.70;73.90;;;;;;5033520;28;20443;-78
2022/08/19 03:09:20;;;;;;;2.20;2.10;;;22.60;74.00;;;;;;5033173;28;20924;-77
2022/08/19 03:11:47;;;;;;;2.00;1.90;;;22.50;74.20;;;;;;5033336;28;20625;-78
2022/08/19 03:14:14;;;;;;;1.90;1.80;;;22.50;74.50;;;;;;5034934;28;20460;-77
2022/08/19 03:16:43;;;;;;;2.10;2.00;;;22.50;74.50;;;;;;5033410;28;20493;-78
2022/08/19 03:19:11;;;;;;;2.20;2.10;;;22.60;74.20;;;;;;5033168;28;20440;-78
2022/08/19 03:21:38;;;;;;;1.83;1.73;;;22.60;74.20;;;;;;5032971;28;20467;-78
2022/08/19 03:24:08;;;;;;;1.60;1.50;;;22.60;74.10;;;;;;5033078;28;20958;-78
2022/08/19 03:26:34;;;;;;;1.90;1.80;;;22.60;74.10;;;;;;5033363;28;20443;-78
2022/08/19 03:29:03;;;;;;;2.17;2.07;;;22.60;74.10;;;;;;5033322;28;20444;-78
2022/08/19 03:31:31;;;;;;;2.40;2.30;;;22.50;74.40;;;;;;5033142;28;20480;-78
2022/08/19 03:33:57;;;;;;;2.30;2.20;;;22.50;74.40;;;;;;5033192;28;20483;-78
2022/08/19 03:36:27;;;;;;;1.80;1.70;;;22.50;74.70;;;;;;5033202;28;20861;-78
2022/08/19 03:38:56;;;;;;;2.10;2.00;;;22.40;74.70;;;;;;5033278;28;20534;-78
2022/08/19 03:41:25;;;;;;;2.00;1.90;;;22.40;75.00;;;;;;5033108;28;20518;-78
2022/08/19 03:43:54;;;;;;;1.90;1.80;;;22.40;75.00;;;;;;5033143;28;20498;-78
2022/08/19 03:46:24;;;;;;;1.70;1.60;;;22.40;75.00;;;;;;5032872;28;20931;-78
2022/08/19 03:48:53;;;;;;;2.00;1.90;;;22.40;75.00;;;;;;5033168;28;20427;-78
2022/08/19 03:51:22;;;;;;;1.90;1.80;;;22.40;74.80;;;;;;5032961;28;20633;-77
2022/08/19 03:53:50;;;;;;;2.00;1.90;;;22.40;74.80;;;;;;5033070;28;20474;-77
2022/08/19 03:56:17;;;;;;;1.90;1.80;;;22.40;74.90;;;;;;5032730;28;20820;-77
2022/08/19 03:58:44;;;;;;;1.90;1.80;;;22.40;74.90;;;;;;5033004;28;20447;-78
2022/08/19 04:01:15;;;;;;;1.93;1.83;;;22.50;74.80;;;;;;5035659;28;20482;-77
2022/08/19 04:03:42;;;;;;;1.97;1.87;;;22.40;75.00;;;;;;5036910;28;20483;-77
2022/08/19 04:06:13;;;;;;;2.00;1.90;;;22.40;75.00;;;;;;5036771;28;20447;-77
2022/08/19 04:08:41;;;;;;;2.17;2.07;;;22.30;75.10;;;;;;5036458;28;20957;-78
2022/08/19 04:11:11;;;;;;;2.20;2.10;;;22.30;75.10;;;;;;5036210;28;20842;-78
2022/08/19 04:13:38;;;;;;;2.10;2.00;;;22.30;75.20;;;;;;5036712;28;20432;-78
2022/08/19 04:16:06;;;;;;;1.90;1.80;;;22.30;75.20;;;;;;5036673;28;20958;-78
2022/08/19 04:18:34;;;;;;;2.00;1.90;;;22.20;75.40;;;;;;5036581;28;20459;-78
2022/08/19 04:21:01;;;;;;;2.23;2.13;;;22.20;75.30;;;;;;5036451;28;20471;-77
2022/08/19 04:23:28;;;;;;;2.10;2.00;;;22.10;75.40;;;;;;5036527;28;20534;-78
2022/08/19 04:25:55;;;;;;;2.00;1.90;;;22.10;75.60;;;;;;5036455;28;20493;-78
2022/08/19 04:28:25;;;;;;;2.33;2.23;;;22.10;75.60;;;;;;5036401;28;20447;-78
2022/08/19 04:30:54;;;;;;;2.20;2.10;;;22.10;75.60;;;;;;5036240;28;20467;-78
2022/08/19 04:33:23;;;;;;;2.07;1.97;;;22.10;75.70;;;;;;5036318;28;20452;-78
2022/08/19 04:35:52;;;;;;;2.10;2.00;;;22.00;75.60;;;;;;5036202;28;20470;-77
2022/08/19 04:38:22;;;;;;;2.67;2.57;;;22.10;75.60;;;;;;5036220;28;20443;-77
2022/08/19 04:43:38;;;;;;;2.47;2.37;;;22.10;75.60;;;;;;5036218;28;20443;-78
2022/08/19 04:46:06;;;;;;;2.00;1.90;;;22.10;75.30;;;;;;5036173;28;20494;-78
2022/08/19 04:48:33;;;;;;;2.33;2.23;;;22.10;75.50;;;;;;5036049;28;20439;-78
2022/08/19 04:51:00;;;;;;;2.47;2.37;;;22.00;75.80;;;;;;5035828;28;20497;-78
2022/08/19 04:53:28;;;;;;;2.83;2.73;;;22.10;75.60;;;;;;5035931;28;20456;-78
2022/08/19 04:55:56;;;;;;;2.40;2.30;;;22.10;75.50;;;;;;5035973;28;20463;-78
2022/08/19 04:58:23;;;;;;;2.10;2.00;;;22.10;75.60;;;;;;5035888;28;20451;-78
2022/08/19 05:00:51;;;;;;;2.27;2.17;;;22.10;75.50;;;;;;5035673;28;20475;-78
2022/08/19 05:03:18;;;;;;;2.20;2.10;;;22.20;75.50;;;;;;5035828;28;20837;-78
2022/08/19 05:05:48;;;;;;;2.40;2.30;;;22.20;75.40;;;;;;5035723;28;20526;-78
2022/08/19 05:08:19;;;;;;;2.63;2.53;;;22.10;75.60;;;;;;5035726;28;20506;-78
2022/08/19 05:10:47;;;;;;;2.47;2.37;;;22.00;75.80;;;;;;5035364;28;20475;-78
2022/08/19 05:13:14;;;;;;;1.90;1.80;;;21.90;76.30;;;;;;5034446;28;20484;-77
2022/08/19 05:15:41;;;;;;;2.50;2.40;;;21.90;76.20;;;;;;5035574;28;20467;-78
2022/08/19 05:23:37;;;;;;;2.13;2.03;;;21.90;76.60;;;;;;5035531;28;20426;-78
2022/08/19 05:26:04;;;;;;;2.30;2.20;;;21.90;76.60;;;;;;5035030;28;20502;-77
2022/08/19 05:28:31;;;;;;;1.97;1.87;;;22.00;76.30;;;;;;5034996;28;20939;-78
2022/08/19 05:30:58;;;;;;;2.20;2.10;;;22.00;76.20;;;;;;5035135;28;20479;-78
2022/08/19 05:33:27;;;;;;;2.10;2.00;;;22.10;76.00;;;;;;5035258;28;20475;-76
2022/08/19 05:35:54;;;;;;;2.37;2.27;;;22.00;76.10;;;;;;5035222;28;20525;-77
2022/08/19 05:38:20;;;;;;;2.10;2.00;;;22.00;76.10;;;;;;5034902;28;20935;-78
2022/08/19 05:40:49;;;;;;;1.77;1.67;;;22.00;76.20;;;;;;5035986;28;20495;-73
2022/08/19 05:43:16;;;;;;;2.10;2.00;;;21.90;76.30;;;;;;5035456;28;20498;-73
2022/08/19 05:45:44;;;;;;;2.27;2.17;;;21.90;76.40;;;;;;5035886;28;20488;-73
2022/08/19 05:48:11;;;;;;;2.47;2.37;;;22.00;76.10;;;;;;5035903;28;20474;-73
2022/08/19 05:50:41;;;;;;;2.10;2.00;;;22.00;76.10;;;;;;5034640;28;20516;-73
2022/08/19 05:53:08;;;;;;;2.20;2.10;;;22.10;75.80;;;;;;5034495;28;20913;-74
2022/08/19 05:55:37;;;;;;;1.97;1.87;;;22.10;75.80;;;;;;5034875;28;20547;-73
2022/08/19 05:58:07;;;;;;;2.10;2.00;;;22.30;75.50;;;;;;5035167;28;20454;-74
2022/08/19 06:00:34;;;;;;;2.17;2.07;;;22.30;75.20;;;;;;5035011;28;20455;-74
2022/08/19 06:03:02;;;;;;;2.40;2.30;;;22.20;75.40;;;;;;5034995;28;20501;-74
2022/08/19 06:05:29;;;;;;;2.23;2.13;;;22.10;75.50;;;;;;5035000;28;20897;-74
2022/08/19 06:07:58;;;;;;;2.10;2.00;;;22.10;75.80;;;;;;5034990;28;20439;-74
2022/08/19 06:10:26;;;;;;;2.20;2.10;;;22.00;75.80;;;;;;5035207;28;20451;-73
2022/08/19 06:12:53;;;;;;;2.70;2.60;;;22.00;76.00;;;;;;5034549;28;20570;-73
2022/08/19 06:15:26;;;;;;;2.03;1.93;;;22.00;76.10;;;;;;5034760;28;20455;-74
2022/08/19 06:17:53;;;;;;;2.40;2.30;;;22.10;76.10;;;;;;5034081;28;20847;-74
2022/08/19 06:20:20;;;;;;;2.50;2.40;;;22.10;75.90;;;;;;5033971;28;20930;-73
2022/08/19 06:22:49;;;;;;;2.60;2.50;;;22.10;75.80;;;;;;5034006;28;20444;-73
2022/08/19 06:25:17;;;;;;;2.50;2.40;;;22.10;75.80;;;;;;5034247;28;20497;-74
2022/08/19 06:27:45;;;;;;;2.40;2.30;;;22.00;75.90;;;;;;5034118;28;20443;-74
2022/08/19 06:30:13;;;;;;;2.33;2.23;;;22.00;76.20;;;;;;5034117;28;20447;-74
2022/08/19 06:32:40;;;;;;;2.43;2.33;;;22.10;76.10;;;;;;5033930;28;20892;-74
2022/08/19 06:35:07;;;;;;;2.20;2.10;;;22.20;75.80;;;;;;5033845;28;20939;-74
2022/08/19 06:37:34;;;;;;;2.23;2.13;;;22.20;75.70;;;;;;5034067;28;20443;-74
2022/08/19 06:40:01;;;;;;;2.10;2.00;;;22.20;75.70;;;;;;5034101;28;20447;-73
2022/08/19 06:42:29;;;;;;;2.47;2.37;;;22.20;75.60;;;;;;5034321;28;20474;-73
2022/08/19 06:44:55;;;;;;;2.03;1.93;;;22.20;75.70;;;;;;5034171;28;20451;-77
2022/08/19 06:47:23;;;;;;;2.10;2.00;;;22.20;75.70;;;;;;5034212;28;21050;-76
2022/08/19 06:49:49;;;;;;;2.17;2.07;;;22.20;75.70;;;;;;5033836;28;20451;-74
2022/08/19 06:52:16;;;;;;;1.93;1.83;;;22.20;76.00;;;;;;5033868;28;20480;-75
2022/08/19 06:54:43;;;;;;;2.20;2.10;;;22.20;75.90;;;;;;5034611;28;20469;-74
2022/08/19 06:57:14;;;;;;;2.03;1.93;;;22.20;75.90;;;;;;5034005;28;20448;-73
2022/08/19 06:59:42;;;;;;;2.40;2.30;;;22.30;75.90;;;;;;5033990;28;20941;-74
2022/08/19 07:02:09;;;;;;;2.20;2.10;;;22.20;76.20;;;;;;5033919;28;20498;-74
2022/08/19 07:04:38;;;;;;;1.80;1.70;;;22.30;76.00;;;;;;5034457;28;20497;-75
2022/08/19 07:07:08;;;;;;;2.20;2.10;;;22.30;76.20;;;;;;5034665;28;20451;-72
2022/08/19 07:09:38;;;;;;;1.97;1.87;;;22.30;76.10;;;;;;5034647;28;20436;-73
2022/08/19 07:12:07;;;;;;;2.10;2.00;;;22.40;76.40;;;;;;5033942;28;20479;-73
2022/08/19 07:14:37;;;;;;;2.17;2.07;;;22.30;76.40;;;;;;5033858;28;20531;-73
2022/08/19 07:17:06;;;;;;;2.17;2.07;;;22.30;76.80;;;;;;5033140;28;20950;-75
2022/08/19 07:19:34;;;;;;;2.27;2.17;;;22.20;77.10;;;;;;5033436;28;20478;-72
2022/08/19 07:22:03;;;;;;;2.40;2.30;;;22.10;77.50;;;;;;5033293;28;20463;-73
2022/08/19 07:24:30;;;;;;;2.27;2.17;;;22.10;77.70;;;;;;5033397;28;20454;-73
2022/08/19 07:27:02;;;;;;;2.30;2.20;;;22.00;77.70;;;;;;5033280;28;20443;-73
2022/08/19 07:29:30;;;;;;;2.10;2.00;;;22.00;78.10;;;;;;5033377;28;20439;-73
2022/08/19 07:31:58;;;;;;;2.20;2.10;;;22.10;78.10;;;;;;5033190;28;20467;-73
2022/08/19 07:34:28;;;;;;;2.20;2.10;;;22.00;78.00;;;;;;5033397;28;20505;-75
2022/08/19 07:36:55;;;;;;;1.93;1.83;;;22.00;77.80;;;;;;5037431;28;20452;-73
2022/08/19 07:39:24;;;;;;;2.07;1.97;;;22.00;78.00;;;;;;5037341;28;20546;-74
2022/08/19 07:41:52;;;;;;;1.73;1.63;;;22.00;78.00;;;;;;5037212;28;20503;-75
2022/08/19 07:44:20;;;;;;;2.13;2.03;;;22.00;77.80;;;;;;5036951;28;20988;-74
2022/08/19 07:46:51;;;;;;;2.17;2.07;;;22.00;77.90;;;;;;5037216;28;20455;-74
2022/08/19 07:49:19;;;;;;;1.70;1.60;;;22.10;77.70;;;;;;5037237;28;20442;-75
2022/08/19 07:51:50;;;;;;;2.00;1.90;;;22.10;77.60;;;;;;5037125;28;20586;-73
2022/08/19 07:54:17;;;;;;;1.80;1.70;;;22.00;77.60;;;;;;5036987;28;20846;-74
2022/08/19 07:56:44;;;;;;;2.03;1.93;;;22.10;77.50;;;;;;5037026;28;20497;-74
2022/08/19 07:59:11;;;;;;;2.30;2.20;;;22.10;77.50;;;;;;5036598;28;20867;-74
2022/08/19 08:01:39;;;;;;;1.90;1.80;;;22.10;77.40;;;;;;5036632;28;20582;-74
2022/08/19 08:09:40;;;;;;;2.20;2.10;;;22.10;77.50;;;;;;5036907;28;20517;-74
2022/08/19 08:12:10;;;;;;;2.00;1.90;;;22.10;77.50;;;;;;5036273;28;20986;-72
2022/08/19 08:14:39;;;;;;;1.83;1.73;;;22.10;77.30;;;;;;5036384;28;20822;-75
2022/08/19 08:17:07;;;;;;;1.70;1.60;;;22.20;77.30;;;;;;5036651;28;20443;-72
2022/08/19 08:19:34;;;;;;;1.60;1.50;;;22.10;77.40;;;;;;5037422;28;20447;-76
2022/08/19 08:22:02;;;;;;;2.10;2.00;;;22.20;77.60;;;;;;5036210;28;20467;-75
2022/08/19 08:24:31;;;;;;;1.87;1.77;;;22.20;77.60;;;;;;5036567;28;20462;-72
2022/08/19 08:26:59;;;;;;;1.87;1.77;;;22.10;77.90;;;;;;5036633;28;20542;-75
2022/08/19 08:29:27;;;;;;;1.83;1.73;;;22.00;78.10;;;;;;5036804;28;20516;-74
2022/08/19 08:31:54;;;;;;;1.80;1.70;;;22.00;78.30;;;;;;5036615;28;20493;-75
2022/08/19 08:34:21;;;;;;;1.70;1.60;;;22.00;78.60;;;;;;5036424;28;20515;-73
2022/08/19 08:36:48;;;;;;;2.03;1.93;;;22.00;78.90;;;;;;5036402;28;20493;-73
2022/08/19 08:39:18;;;;;;;1.73;1.63;;;22.00;78.80;;;;;;5036440;28;20447;-73
2022/08/19 08:41:52;;;;;;;1.63;1.53;;;22.00;78.90;;;;;;5036076;28;20929;-73
2022/08/19 08:44:24;;;;;;;2.07;1.97;;;22.00;78.90;;;;;;5036396;28;20446;-73
2022/08/19 08:46:56;;;;;;;1.90;1.80;;;22.10;79.10;;;;;;5036465;28;20442;-75
2022/08/19 08:49:32;;;;;;;2.23;2.13;;;22.10;79.40;;;;;;5037011;28;20432;-74
2022/08/19 08:52:03;;;;;;;1.90;1.80;;;22.10;79.30;;;;;;5036144;28;20474;-74
2022/08/19 08:54:36;;;;;;;1.90;1.80;;;22.20;79.20;;;;;;5036267;28;20467;-74
2022/08/19 08:57:08;;;;;;;1.80;1.70;;;22.20;79.00;;;;;;5036338;28;20417;-73
2022/08/19 08:59:38;;;;;;;2.20;2.10;;;22.20;79.20;;;;;;5035949;28;20404;-73
2022/08/19 09:02:05;;;;;;;1.80;1.70;;;22.30;79.10;;;;;;5035345;28;20537;-73
2022/08/19 09:04:32;;;;;;;1.83;1.73;;;22.20;79.50;;;;;;5035415;28;20800;-75
2022/08/19 09:07:15;;;;;;;1.97;1.87;;;22.30;79.70;;;;;;5035752;28;20525;-74
2022/08/19 09:09:47;;;;;;;1.80;1.70;;;22.30;79.40;;;;;;5036677;28;20439;-74
2022/08/19 09:12:20;;;;;;;1.93;1.83;;;22.30;79.30;;;;;;5035594;28;20978;-74
2022/08/19 09:14:51;;;;;;;1.87;1.77;;;22.30;79.20;;;;;;5037456;28;20533;-73
2022/08/19 09:17:20;;;;;;;1.93;1.83;;;22.30;79.20;;;;;;5035607;28;20925;-74
2022/08/19 09:19:52;;;;;;;1.80;1.70;;;22.40;79.20;;;;;;5036004;28;20447;-74
2022/08/19 09:22:21;;;;;;;1.80;1.70;;;22.30;78.90;;;;;;5036244;28;20474;-74
2022/08/19 09:24:50;;;;;;;1.77;1.70;;;22.40;78.70;;;;;;5036746;28;20487;-74
2022/08/19 09:27:16;;;;;;;1.90;1.80;;;22.50;78.70;;;;;;5035596;28;20470;-74
2022/08/19 09:29:43;;;;;;;1.90;1.80;;;22.50;78.20;;;;;;5035849;28;20455;-74
2022/08/19 09:32:10;;;;;;;1.87;1.77;;;22.50;78.70;;;;;;5035403;28;20467;-74
2022/08/19 09:34:36;;;;;;;1.70;1.60;;;22.30;78.60;;;;;;5035148;28;20541;-75
2022/08/19 09:37:04;;;;;;;1.70;1.60;;;22.30;78.90;;;;;;5035197;28;20510;-74
2022/08/19 09:39:31;;;;;;;1.50;1.40;;;22.30;78.30;;;;;;5035188;28;20506;-74
2022/08/19 09:41:59;;;;;;;1.97;1.87;;;22.20;78.80;;;;;;5035510;28;20467;-74
2022/08/19 09:44:26;;;;;;;1.83;1.73;;;22.30;78.80;;;;;;5035120;28;20582;-74
2022/08/19 09:46:53;;;;;;;1.87;1.77;;;22.30;78.80;;;;;;5034942;28;20448;-74
2022/08/19 09:49:21;;;;;;;2.20;2.10;;;22.30;78.70;;;;;;5034858;28;20458;-74
2022/08/19 09:51:51;;;;;;;1.70;1.60;;;22.30;78.20;;;;;;5035095;28;21048;-74
2022/08/19 09:54:18;;;;;;;1.90;1.80;;;22.30;78.20;;;;;;5035213;28;20484;-74
2022/08/19 09:56:44;;;;;;;1.70;1.60;;;22.30;78.50;;;;;;5034909;28;20498;-74
2022/08/19 09:59:13;;;;;;;1.63;1.53;;;22.30;78.40;;;;;;5034384;28;20443;-74
2022/08/19 10:01:40;;;;;;;1.70;1.60;;;22.40;78.50;;;;;;5034491;28;20489;-74
2022/08/19 10:04:08;;;;;;;1.70;1.60;;;22.40;78.70;;;;;;5034896;28;20467;-74
2022/08/19 10:06:35;;;;;;;1.63;1.53;;;22.50;78.50;;;;;;5034918;28;20456;-74
2022/08/19 10:09:04;;;;;;;2.17;2.07;;;22.40;78.50;;;;;;5035612;28;20443;-75
2022/08/19 10:11:31;;;;;;;2.00;1.90;;;22.40;78.30;;;;;;5034623;28;20463;-75
2022/08/19 10:13:57;;;;;;;1.80;1.70;;;22.30;78.90;;;;;;5034302;28;20914;-74
2022/08/19 10:16:26;;;;;;;1.57;1.47;;;22.30;78.50;;;;;;5034508;28;20451;-74
2022/08/19 10:18:54;;;;;;;1.57;1.47;;;22.30;78.60;;;;;;5034354;28;20513;-74
2022/08/19 10:21:23;;;;;;;1.53;1.43;;;22.30;78.60;;;;;;5034448;28;20468;-74
2022/08/19 10:23:52;;;;;;;1.70;1.60;;;22.40;78.20;;;;;;5034610;28;20459;-73
2022/08/19 10:26:21;;;;;;;1.60;1.50;;;22.50;77.90;;;;;;5034461;28;20451;-74
2022/08/19 10:28:48;;;;;;;1.67;1.57;;;22.70;78.00;;;;;;5034382;28;20451;-75
2022/08/19 10:31:19;;;;;;;1.57;1.47;;;22.70;77.90;;;;;;5034221;28;20468;-73
2022/08/19 10:33:47;;;;;;;1.30;1.30;;;22.60;77.30;;;;;;5034179;28;20510;-74
2022/08/19 10:36:17;;;;;;;1.60;1.50;;;22.60;77.30;;;;;;5034298;28;20888;-74
2022/08/19 10:38:45;;;;;;;1.27;1.17;;;22.80;77.10;;;;;;5034167;28;20447;-74
2022/08/19 10:41:14;;;;;;;1.80;1.70;;;22.70;77.10;;;;;;5034009;28;20499;-73
2022/08/19 10:43:41;;;;;;;1.50;1.40;;;22.80;77.20;;;;;;5033981;28;20443;-75
2022/08/19 10:46:10;;;;;;;1.67;1.57;;;22.90;77.40;;;;;;5034150;28;20554;-74
2022/08/19 10:48:37;;;;;;;1.10;1.10;;;23.00;76.80;;;;;;5035210;28;20451;-74
2022/08/19 10:53:50;;;;;;;1.30;1.20;;;23.00;76.80;;;;;;5036105;28;20471;-74
2022/08/19 10:59:03;;;;;;;1.40;1.30;;;22.90;77.10;;;;;;5035596;28;20472;-74
2022/08/19 11:01:30;;;;;;;1.10;1.10;;;22.90;77.10;;;;;;5035524;28;20521;-74
2022/08/19 11:03:58;;;;;;;1.70;1.50;;;22.90;77.00;;;;;;5035542;28;20990;-73
2022/08/19 11:06:26;;;;;;;1.40;1.30;;;22.90;77.20;;;;;;5035004;28;20490;-74
2022/08/19 11:08:52;;;;;;;1.47;1.37;;;23.00;76.40;;;;;;5033890;28;20943;-72
2022/08/19 11:11:19;;;;;;;2.30;1.70;;;22.90;76.60;;;;;;5033899;28;20490;-76
2022/08/19 11:13:47;;;;;;;1.57;1.47;;;22.90;76.90;;;;;;5034571;28;20491;-75
2022/08/19 11:16:16;;;;;;;1.57;1.47;;;23.00;76.70;;;;;;5033646;28;20467;-77
2022/08/19 11:18:46;;;;;;;1.60;1.50;;;23.10;76.30;;;;;;5035370;28;20439;-75
2022/08/19 11:21:16;;;;;;;1.50;1.40;;;23.10;76.60;;;;;;5034251;28;20526;-76
2022/08/19 11:23:46;;;;;;;1.23;1.23;;;23.20;76.60;;;;;;5034872;28;20431;-76
2022/08/19 11:26:14;;;;;;;1.00;1.00;;;23.30;75.60;;;;;;5034734;28;20451;-75
2022/08/19 11:28:41;;;;;;;1.30;1.20;;;23.30;75.80;;;;;;5035218;28;20456;-75
2022/08/19 11:31:11;;;;;;;1.40;1.30;;;23.30;75.70;;;;;;5035804;28;20471;-76
2022/08/19 11:33:38;;;;;;;1.30;1.20;;;23.40;75.30;;;;;;5035071;28;20479;-77
2022/08/19 11:36:05;;;;;;;1.30;1.20;;;23.40;75.10;;;;;;5035232;28;20455;-76
2022/08/19 11:38:32;;;;;;;1.00;1.00;;;23.40;74.20;;;;;;5035178;28;20451;-76
2022/08/19 11:41:02;;;;;;;1.30;1.20;;;23.40;75.10;;;;;;5035039;28;20463;-76
2022/08/19 11:43:29;;;;;;;1.20;1.10;;;23.50;74.70;;;;;;5035871;28;20571;-76
2022/08/19 11:45:56;;;;;;;1.20;1.10;;;23.60;75.10;;;;;;5035220;28;20498;-75
2022/08/19 11:48:24;;;;;;;1.43;1.33;;;23.60;74.30;;;;;;5035790;28;20497;-76
2022/08/19 11:50:52;;;;;;;1.03;1.03;;;23.60;73.90;;;;;;5035350;28;20518;-76
2022/08/19 11:53:20;;;;;;;1.10;1.10;;;23.70;73.90;;;;;;5035122;28;20443;-76
2022/08/19 11:55:47;;;;;;;1.20;1.10;;;23.70;73.20;;;;;;5035126;28;20482;-76
2022/08/19 11:58:17;;;;;;;1.20;1.10;;;23.80;72.80;;;;;;5035045;28;20567;-76
2022/08/19 12:00:45;;;;;;;1.20;1.10;;;23.90;73.40;;;;;;5034850;28;20883;-76
2022/08/19 12:03:13;;;;;;;1.20;1.20;;;24.00;73.10;;;;;;5035712;28;20431;-76
2022/08/19 12:05:40;;;;;;;0.97;0.97;;;24.10;73.10;;;;;;5035546;28;20462;-76
2022/08/19 12:08:08;;;;;;;1.10;1.00;;;24.20;72.30;;;;;;5034945;28;20997;-76
2022/08/19 12:10:35;;;;;;;1.27;1.23;;;24.30;72.20;;;;;;5034662;28;20451;-76
2022/08/19 12:13:02;;;;;;;1.10;1.10;;;24.30;72.10;;;;;;5034577;28;20498;-76
2022/08/19 12:15:30;;;;;;;1.10;1.00;;;24.30;72.10;;;;;;5034398;28;20475;-76
2022/08/19 12:17:57;;;;;;;1.00;1.00;;;24.30;72.20;;;;;;5035300;28;20509;-75
2022/08/19 12:20:26;;;;;;;1.13;1.03;;;24.40;72.10;;;;;;5035058;28;20877;-75
2022/08/19 12:22:52;;;;;;;1.30;1.20;;;24.40;71.60;;;;;;5038744;28;20550;-76
2022/08/19 12:25:20;;;;;;;1.20;1.10;;;24.40;70.90;;;;;;5038839;28;20498;-74
2022/08/19 12:27:47;;;;;;;1.00;1.00;;;24.40;71.00;;;;;;5038807;28;20505;-75
2022/08/19 12:30:14;;;;;;;1.20;1.10;;;24.50;71.50;;;;;;5039804;28;20448;-75
2022/08/19 12:32:42;;;;;;;1.17;1.10;;;24.50;71.60;;;;;;5039764;28;20493;-76
2022/08/19 12:35:11;;;;;;;1.40;1.30;;;24.50;71.00;;;;;;5038711;28;20479;-75
2022/08/19 12:37:38;;;;;;;1.27;1.03;;;24.50;71.00;;;;;;5039505;28;20981;-74
2022/08/19 12:40:06;;;;;;;1.30;1.20;;;24.50;71.00;;;;;;5038951;28;20447;-74
2022/08/19 12:42:32;;;;;;;0.90;0.90;;;24.50;71.20;;;;;;5039252;28;20468;-74
2022/08/19 12:44:59;;;;;;;1.00;1.00;;;24.30;72.20;;;;;;5039417;28;20851;-74
2022/08/19 12:47:26;;;;;;;0.93;0.93;;;24.30;71.30;;;;;;5039519;28;20455;-75
2022/08/19 12:49:55;;;;;;;1.60;1.50;;;24.20;71.90;;;;;;5040173;28;20481;-74
2022/08/19 12:52:22;;;;;;;1.17;1.17;;;24.30;71.90;;;;;;5040247;28;20650;-74
2022/08/19 12:54:49;;;;;;;1.50;1.40;;;24.20;74.80;;;;;;5040496;28;20491;-74
2022/08/19 12:57:16;;;;;;;2.20;2.03;;;23.80;78.30;;;;;;5040825;28;20452;-75
2022/08/19 12:59:42;;;;;;;1.80;1.70;;;23.60;79.60;;;;;;5041548;28;20447;-75
2022/08/19 13:02:09;;;;;;;1.50;1.40;;;23.20;81.10;;;;;;5040404;28;20482;-74
2022/08/19 13:04:40;;;;;;;1.57;1.47;;;22.80;83.40;;;;;;5040859;28;20958;-74
2022/08/19 13:07:09;;;;;;;1.87;1.77;;;22.70;84.30;;;;;;5040339;28;20444;-74
2022/08/19 13:09:36;;;;;;;1.87;1.77;;;22.50;85.10;;;;;;5039916;28;20526;-74
2022/08/19 13:12:03;;;;;;;2.03;1.93;;;22.30;85.70;;;;;;5037926;28;20833;-75
2022/08/19 13:14:31;;;;;;;1.97;1.87;;;22.40;85.30;;;;;;5036897;28;20489;-74
2022/08/19 13:16:58;;;;;;;1.80;1.70;;;22.60;84.70;;;;;;5037176;28;20938;-74
2022/08/19 13:19:25;;;;;;;1.80;1.70;;;22.60;83.70;;;;;;5037856;28;20456;-76
2022/08/19 13:21:52;;;;;;;1.77;1.67;;;22.60;83.20;;;;;;5038049;28;20467;-74
2022/08/19 13:24:20;;;;;;;2.10;2.00;;;22.70;83.50;;;;;;5038226;28;20866;-75
2022/08/19 13:26:47;;;;;;;1.90;1.80;;;22.70;83.40;;;;;;5039060;28;20523;-74
2022/08/19 13:34:44;;;;;;;1.80;1.70;;;22.70;83.60;;;;;;5038985;28;20474;-75
2022/08/19 13:37:11;;;;;;;2.00;1.90;;;22.70;84.00;;;;;;5040040;28;20448;-75
2022/08/19 13:39:39;;;;;;;2.00;1.90;;;22.40;84.80;;;;;;5040096;28;20452;-74
2022/08/19 13:42:09;;;;;;;2.10;2.00;;;22.20;85.90;;;;;;5037895;28;20522;-74
2022/08/19 13:44:35;;;;;;;2.13;2.03;;;22.10;86.30;;;;;;5039448;28;20462;-76
2022/08/19 13:47:06;;;;;;;2.30;2.20;;;21.90;87.00;;;;;;5038995;28;20475;-75
2022/08/19 13:49:35;;;;;;;2.07;1.97;;;21.80;87.00;;;;;;5038850;28;20439;-74
2022/08/19 13:52:02;;;;;;;2.50;2.40;;;21.60;87.40;;;;;;5039512;28;20475;-74
2022/08/19 13:54:29;;;;;;;1.87;1.77;;;21.80;87.30;;;;;;5038208;28;20483;-73
2022/08/19 13:56:57;;;;;;;2.43;2.33;;;21.80;87.10;;;;;;5037912;28;20502;-73
2022/08/19 13:59:24;;;;;;;2.10;2.00;;;21.80;86.90;;;;;;5038599;28;20448;-75
2022/08/19 14:01:51;;;;;;;2.23;2.13;;;21.70;87.20;;;;;;5039165;28;20555;-75
2022/08/19 14:04:18;;;;;;;2.10;2.00;;;21.80;87.50;;;;;;5040044;28;20444;-74
2022/08/19 14:06:45;;;;;;;2.63;2.53;;;21.80;87.20;;;;;;5039784;28;20444;-75
2022/08/19 14:09:12;;;;;;;2.20;2.10;;;21.80;87.30;;;;;;5038910;28;20451;-74
2022/08/19 14:11:38;;;;;;;2.70;2.60;;;21.60;87.90;;;;;;5038112;28;20983;-75
2022/08/19 14:14:06;;;;;;;2.30;2.20;;;21.60;88.20;;;;;;5037930;28;20452;-75
2022/08/19 14:16:33;;;;;;;2.43;2.33;;;21.50;88.30;;;;;;5039291;28;20859;-74
2022/08/19 14:19:00;;;;;;;2.40;2.30;;;21.60;88.30;;;;;;5038826;28;20455;-74
2022/08/19 14:21:26;;;;;;;2.70;2.60;;;21.50;88.10;;;;;;5038188;28;20475;-74
2022/08/19 14:23:54;;;;;;;2.27;2.17;;;21.60;88.00;;;;;;5037989;28;20474;-74
2022/08/19 14:26:22;;;;;;;2.37;2.27;;;21.50;87.80;;;;;;5037008;28;20943;-76
2022/08/19 14:28:49;;;;;;;2.60;2.50;;;21.60;88.20;;;;;;5036513;28;20467;-75
2022/08/19 14:31:19;;;;;;;2.27;2.17;;;21.70;87.60;;;;;;5034143;28;20846;-77
2022/08/19 14:33:46;;;;;;;2.20;2.10;;;21.80;87.30;;;;;;5034207;28;20479;-77
2022/08/19 14:36:13;;;;;;;2.23;2.13;;;21.80;87.60;;;;;;5034725;28;20570;-77
2022/08/19 14:38:40;;;;;;;2.00;1.90;;;21.70;86.90;;;;;;5034027;28;20452;-77
2022/08/19 14:41:13;;;;;;;2.37;2.27;;;21.70;87.30;;;;;;5034198;28;20459;-77
2022/08/19 14:43:39;;;;;;;2.43;2.33;;;21.80;86.90;;;;;;5034262;28;20474;-77
2022/08/19 14:46:07;;;;;;;2.50;2.40;;;21.70;87.20;;;;;;5034224;28;20459;-77
2022/08/19 14:48:36;;;;;;;2.20;2.10;;;21.60;87.60;;;;;;5034056;28;20482;-77
2022/08/19 14:51:02;;;;;;;2.47;2.37;;;21.80;87.90;;;;;;5033907;28;20476;-77
2022/08/19 14:53:29;;;;;;;2.00;1.90;;;21.80;87.50;;;;;;5034139;28;20498;-77
2022/08/19 14:55:56;;;;;;;2.13;2.03;;;21.80;87.10;;;;;;5034788;28;20479;-78
2022/08/19 14:58:23;;;;;;;2.30;2.20;;;21.80;87.50;;;;;;5035117;28;20452;-78
2022/08/19 15:00:50;;;;;;;2.20;2.10;;;22.10;87.10;;;;;;5035117;28;20485;-77
2022/08/19 15:03:16;;;;;;;2.20;2.10;;;22.20;85.10;;;;;;5034986;28;20419;-77
2022/08/19 15:05:44;;;;;;;2.30;2.20;;;22.20;85.20;;;;;;5034598;28;20451;-78
2022/08/19 15:08:11;;;;;;;2.00;1.90;;;22.10;85.70;;;;;;5034826;28;20478;-78
2022/08/19 15:10:39;;;;;;;2.00;1.90;;;22.20;85.90;;;;;;5034540;28;20818;-78
2022/08/19 15:13:15;;;;;;;2.33;2.23;;;22.30;85.00;;;;;;5035204;28;20456;-78
2022/08/19 15:15:42;;;;;;;1.93;1.83;;;22.20;85.30;;;;;;5034451;28;20491;-78
2022/08/19 15:18:11;;;;;;;2.07;1.97;;;22.40;85.40;;;;;;5034649;28;20452;-78
2022/08/19 15:20:38;;;;;;;2.00;1.90;;;22.40;84.50;;;;;;5034066;28;20494;-78
2022/08/19 15:23:07;;;;;;;1.77;1.67;;;22.50;84.50;;;;;;5034563;28;20444;-78
2022/08/19 15:25:34;;;;;;;1.70;1.60;;;22.60;84.20;;;;;;5033715;28;20448;-78
2022/08/19 15:28:00;;;;;;;2.13;2.03;;;22.30;84.90;;;;;;5033685;28;20451;-78
2022/08/19 15:30:28;;;;;;;1.83;1.73;;;22.30;84.90;;;;;;5033455;28;20534;-77
2022/08/19 15:32:56;;;;;;;2.10;2.00;;;22.30;85.30;;;;;;5033507;28;20542;-77
2022/08/19 15:35:24;;;;;;;1.90;1.80;;;22.50;84.20;;;;;;5033765;28;20529;-77
2022/08/19 15:37:52;;;;;;;2.00;1.90;;;22.50;84.30;;;;;;5033781;28;20450;-77
2022/08/19 15:40:21;;;;;;;1.90;1.80;;;22.50;84.40;;;;;;5036185;28;20447;-76
2022/08/19 15:42:48;;;;;;;2.30;2.20;;;22.60;84.40;;;;;;5038310;28;20479;-76
2022/08/19 15:45:18;;;;;;;1.63;1.53;;;22.80;84.20;;;;;;5037748;28;20458;-75
2022/08/19 15:47:45;;;;;;;1.90;1.80;;;22.90;83.50;;;;;;5036421;28;20444;-75
2022/08/19 15:50:14;;;;;;;1.70;1.60;;;22.90;83.40;;;;;;5037807;28;20544;-75
2022/08/19 15:52:46;;;;;;;1.63;1.57;;;23.10;82.90;;;;;;5037903;28;20517;-75
2022/08/19 15:55:13;;;;;;;1.77;1.67;;;23.10;82.80;;;;;;5037618;28;20464;-75
2022/08/19 16:08:49;;;;;;;1.40;1.40;;;23.10;82.30;;;;;;5019093;28;20490;-75
2022/08/19 16:11:19;;;;;;;1.60;1.50;;;23.20;82.40;;;;;;5038713;28;20471;-72
2022/08/19 16:13:50;;;;;;;1.30;1.30;;;23.20;82.50;;;;;;5037678;28;20494;-73
2022/08/19 16:16:16;;;;;;;1.63;1.53;;;23.30;82.20;;;;;;5036957;28;20467;-74
2022/08/19 16:18:46;;;;;;;1.60;1.50;;;23.10;82.40;;;;;;5037762;28;20450;-75
2022/08/19 16:21:13;;;;;;;1.37;1.37;;;23.40;81.80;;;;;;5038223;28;20505;-75
2022/08/19 16:23:40;;;;;;;1.50;1.40;;;23.60;80.70;;;;;;5038239;28;20455;-75
2022/08/19 16:26:07;;;;;;;1.53;1.43;;;23.50;81.00;;;;;;5038882;28;20447;-73
2022/08/19 16:28:34;;;;;;;1.30;1.30;;;23.50;81.30;;;;;;5037337;28;20447;-71